LAJ6702 OJAI-OLBA
Flight info
| Callsign | LAJ6702 |
|---|---|
| Flight time | N/A |
| Altitude | 30000 |
| Route | LOSAR1C/26L LOSAR L513 DAM/N0452F290 L513 LEBOR |
| Aircraft | A320/M-SDE3FGHIRWY/LB1 |
Departure
| Time | 2026-05-04 20:36 |
|---|---|
| Airport | Queen Alia International Airport (OJAI) |
Arrival
| Time | N/A |
|---|---|
| Airport | Beirut Rafic Hariri International Airport (OLBA) |
| Time | Latitude | Longitude | Altitude | Speed | Heading |
|---|---|---|---|---|---|
| 2026-05-04 20:27 | 31.72566 | 35.98749 | 2385 ft | 0 kts | 350° |
| 2026-05-04 20:28 | 31.72530 | 35.98756 | 2388 ft | 7 kts | 351° |
| 2026-05-04 20:29 | 31.72491 | 35.98736 | 2383 ft | 0 kts | 78° |
| 2026-05-04 20:29 | 31.72492 | 35.98741 | 2383 ft | 1 kts | 78° |
| 2026-05-04 20:29 | 31.72495 | 35.98758 | 2390 ft | 3 kts | 78° |
| 2026-05-04 20:29 | 31.72500 | 35.98787 | 2384 ft | 4 kts | 78° |
| 2026-05-04 20:30 | 31.72506 | 35.98818 | 2384 ft | 0 kts | 78° |
| 2026-05-04 20:30 | 31.72506 | 35.98821 | 2384 ft | 1 kts | 78° |
| 2026-05-04 20:31 | 31.72511 | 35.98845 | 2384 ft | 8 kts | 77° |
| 2026-05-04 20:31 | 31.72565 | 35.98908 | 2386 ft | 16 kts | 2° |
| 2026-05-04 20:31 | 31.72679 | 35.98916 | 2389 ft | 13 kts | 44° |
| 2026-05-04 20:31 | 31.72697 | 35.99014 | 2388 ft | 13 kts | 82° |
| 2026-05-04 20:32 | 31.72714 | 35.99159 | 2390 ft | 23 kts | 81° |
| 2026-05-04 20:32 | 31.72746 | 35.99380 | 2391 ft | 29 kts | 79° |
| 2026-05-04 20:32 | 31.72785 | 35.99613 | 2393 ft | 30 kts | 80° |
| 2026-05-04 20:32 | 31.72819 | 35.99855 | 2397 ft | 30 kts | 80° |
| 2026-05-04 20:33 | 31.72859 | 36.00106 | 2397 ft | 31 kts | 80° |
| 2026-05-04 20:33 | 31.72889 | 36.00356 | 2399 ft | 32 kts | 81° |
| 2026-05-04 20:33 | 31.72925 | 36.00617 | 2404 ft | 32 kts | 79° |
| 2026-05-04 20:33 | 31.72997 | 36.00769 | 2403 ft | 17 kts | 14° |
| 2026-05-04 20:34 | 31.73113 | 36.00760 | 2405 ft | 20 kts | 346° |
| 2026-05-04 20:34 | 31.73131 | 36.00755 | 2403 ft | 21 kts | 346° |
| 2026-05-04 20:34 | 31.73215 | 36.00672 | 2404 ft | 20 kts | 274° |
| 2026-05-04 20:35 | 31.73179 | 36.00462 | 2402 ft | 57 kts | 263° |
| 2026-05-04 20:35 | 31.73068 | 35.99676 | 2395 ft | 133 kts | 260° |
| 2026-05-04 20:35 | 31.73010 | 35.99285 | 2412 ft | 151 kts | 259° |
| 2026-05-04 20:35 | 31.72881 | 35.98370 | 2803 ft | 162 kts | 260° |
| 2026-05-04 20:36 | 31.72696 | 35.97055 | 3766 ft | 163 kts | 261° |